Time;durP1;ratioP1;P1;durP2;ratioP2;P2;SDS_P1;SDS_P2;PMS_P1;PMS_P2;Temp;Humidity;BMP_temperature;BMP_pressure;BME280_temperature;BME280_humidity;BME280_pressure;Samples;Min_cycle;Max_cycle;Signal;HPM_P1;HPM_P2
2023/03/02 00:01:49;;;;;;;0.20;0.20;;;-1.20;99.90;;;;;;5032710;28;20029;-72
2023/03/02 00:34:31;;;;;;;0.25;0.25;;;-1.30;99.90;;;;;;5036649;28;20020;-72
2023/03/02 00:36:57;;;;;;;0.20;0.20;;;-1.40;99.90;;;;;;5034873;28;20476;-72
2023/03/02 01:02:57;;;;;;;0.28;0.28;;;-2.30;99.90;;;;;;5035241;28;20075;-72
2023/03/02 01:05:23;;;;;;;0.20;0.20;;;-2.30;99.90;;;;;;5035665;28;20032;-72
2023/03/02 01:07:48;;;;;;;0.20;0.20;;;-2.40;99.90;;;;;;5017944;28;20075;-72
2023/03/02 01:10:14;;;;;;;0.20;0.20;;;-2.50;99.90;;;;;;5035584;28;20022;-72
2023/03/02 01:12:40;;;;;;;0.25;0.25;;;-2.50;99.90;;;;;;5035155;28;20022;-72
2023/03/02 01:15:08;;;;;;;0.20;0.20;;;-2.60;99.90;;;;;;5035492;28;20084;-72
2023/03/02 01:17:34;;;;;;;0.20;0.20;;;-2.60;99.90;;;;;;5034583;28;20076;-71
2023/03/02 01:19:59;;;;;;;0.20;0.20;;;-2.60;99.90;;;;;;5034877;28;20017;-72
2023/03/02 01:22:25;;;;;;;0.30;0.30;;;-2.50;99.90;;;;;;5035586;28;20463;-72
2023/03/02 01:24:52;;;;;;;0.20;0.20;;;-2.50;99.90;;;;;;5035028;28;20112;-71
2023/03/02 01:27:17;;;;;;;0.13;0.13;;;-2.50;99.90;;;;;;5034462;28;20029;-72
2023/03/02 01:29:43;;;;;;;0.25;0.25;;;-2.60;99.90;;;;;;5035276;28;20079;-72
2023/03/02 01:32:09;;;;;;;0.20;0.20;;;-2.60;99.90;;;;;;5035123;28;20470;-71
2023/03/02 01:34:34;;;;;;;0.30;0.30;;;-2.50;99.90;;;;;;5035175;28;20119;-71
2023/03/02 01:37:00;;;;;;;0.20;0.20;;;-2.60;99.90;;;;;;5035015;28;20030;-72
2023/03/02 01:39:25;;;;;;;0.22;0.22;;;-2.60;99.90;;;;;;5035284;28;20376;-71
2023/03/02 01:41:51;;;;;;;0.20;0.20;;;-2.60;99.90;;;;;;5034047;28;20057;-72
2023/03/02 01:44:35;;;;;;;0.20;0.20;;;-2.60;99.90;;;;;;5034992;28;20375;-71
2023/03/02 01:47:16;;;;;;;0.10;0.10;;;-2.70;99.90;;;;;;5017141;28;20021;-71
2023/03/02 01:49:46;;;;;;;0.22;0.22;;;-2.70;99.90;;;;;;5034600;28;20049;-72
2023/03/02 01:52:12;;;;;;;0.17;0.17;;;-2.70;99.90;;;;;;5034773;28;20061;-72
2023/03/02 01:54:40;;;;;;;0.20;0.20;;;-2.80;99.90;;;;;;5034282;28;20026;-72
2023/03/02 01:57:07;;;;;;;0.20;0.20;;;-2.80;99.90;;;;;;5034686;28;20399;-71
2023/03/02 01:59:36;;;;;;;0.30;0.30;;;-2.90;99.90;;;;;;5016884;28;20026;-71
2023/03/02 02:02:05;;;;;;;0.30;0.30;;;-3.00;99.90;;;;;;5016539;28;20053;-72
2023/03/02 02:04:33;;;;;;;0.20;0.20;;;-3.00;99.90;;;;;;5034221;28;20544;-72
2023/03/02 02:07:02;;;;;;;0.20;0.20;;;-3.10;99.90;;;;;;5033440;28;20386;-72
2023/03/02 02:09:32;;;;;;;0.10;0.10;;;-3.20;99.90;;;;;;5034494;28;20024;-72
2023/03/02 02:11:57;;;;;;;0.20;0.20;;;-3.30;99.90;;;;;;5034483;28;20025;-71
2023/03/02 02:14:24;;;;;;;0.20;0.20;;;-3.30;99.90;;;;;;5034624;28;20026;-72
2023/03/02 02:16:50;;;;;;;0.25;0.25;;;-3.30;99.90;;;;;;5033950;28;20438;-72
2023/03/02 02:19:39;;;;;;;0.20;0.20;;;-3.40;99.90;;;;;;5033654;28;20030;-71
2023/03/02 02:22:06;;;;;;;0.30;0.30;;;-3.40;99.90;;;;;;5034236;28;20045;-71
2023/03/02 02:24:37;;;;;;;0.20;0.20;;;-3.30;99.90;;;;;;5034040;28;20029;-71
2023/03/02 02:27:03;;;;;;;0.20;0.20;;;-3.40;99.90;;;;;;5034079;28;20060;-71
2023/03/02 02:29:44;;;;;;;0.20;0.20;;;-3.40;99.90;;;;;;5033412;28;20104;-71
2023/03/02 02:32:16;;;;;;;0.22;0.22;;;-3.40;99.90;;;;;;5033733;28;20017;-72
2023/03/02 02:34:48;;;;;;;0.10;0.10;;;-3.40;99.90;;;;;;5034126;28;20398;-72
2023/03/02 02:37:30;;;;;;;0.20;0.20;;;-3.40;99.90;;;;;;5033630;28;20447;-72
2023/03/02 02:39:56;;;;;;;0.15;0.15;;;-3.40;99.90;;;;;;5034146;28;20033;-71
2023/03/02 02:42:33;;;;;;;0.25;0.25;;;-3.40;99.90;;;;;;5033720;28;20029;-71
2023/03/02 02:45:03;;;;;;;0.13;0.13;;;-3.40;99.90;;;;;;5016010;28;20029;-71
2023/03/02 02:47:28;;;;;;;0.20;0.20;;;-3.40;99.90;;;;;;5033263;28;20498;-71
2023/03/02 02:49:55;;;;;;;0.30;0.30;;;-3.50;99.90;;;;;;5033854;28;20021;-72
2023/03/02 02:52:24;;;;;;;0.20;0.20;;;-3.50;99.90;;;;;;5034001;28;20021;-71
2023/03/02 02:54:53;;;;;;;0.20;0.20;;;-3.50;99.90;;;;;;5033790;28;20421;-71
2023/03/02 02:57:20;;;;;;;0.20;0.20;;;-3.60;99.90;;;;;;5033411;28;20059;-71
2023/03/02 02:59:58;;;;;;;0.20;0.20;;;-3.60;99.90;;;;;;5033230;28;20073;-71
2023/03/02 03:02:27;;;;;;;0.20;0.20;;;-3.70;99.90;;;;;;5033508;28;20495;-71
2023/03/02 03:05:01;;;;;;;0.20;0.20;;;-3.70;99.90;;;;;;5033364;28;20069;-72
2023/03/02 03:07:27;;;;;;;0.20;0.20;;;-3.80;99.90;;;;;;5032496;28;20026;-71
2023/03/02 03:10:12;;;;;;;0.20;0.20;;;-3.80;99.90;;;;;;5033225;28;20021;-72
2023/03/02 03:12:38;;;;;;;0.20;0.20;;;-3.90;99.90;;;;;;5033025;28;20105;-71
2023/03/02 03:15:06;;;;;;;0.10;0.10;;;-3.90;99.90;;;;;;5033256;28;20033;-71
2023/03/02 03:17:32;;;;;;;0.20;0.20;;;-3.90;99.90;;;;;;5032656;28;20034;-71
2023/03/02 03:20:04;;;;;;;0.20;0.20;;;-3.90;99.90;;;;;;5032903;28;20017;-71
2023/03/02 03:22:34;;;;;;;0.20;0.20;;;-3.90;99.90;;;;;;5033166;28;20022;-71
2023/03/02 03:25:00;;;;;;;0.20;0.20;;;-3.90;99.90;;;;;;5033050;28;20041;-71
2023/03/02 03:27:26;;;;;;;0.20;0.20;;;-4.00;99.90;;;;;;5057782;22;20051;-73
2023/03/02 03:29:52;;;;;;;0.20;0.20;;;-4.00;99.90;;;;;;5034685;28;20071;-73
2023/03/02 03:32:18;;;;;;;0.20;0.20;;;-4.00;99.90;;;;;;5034436;28;20390;-73
2023/03/02 03:34:44;;;;;;;0.22;0.22;;;-4.00;99.90;;;;;;5034625;28;20509;-73
2023/03/02 03:37:17;;;;;;;0.20;0.20;;;-4.00;99.90;;;;;;5033634;28;20034;-73
2023/03/02 03:39:43;;;;;;;0.20;0.20;;;-4.00;99.90;;;;;;4997947;28;20132;-73
2023/03/02 03:42:10;;;;;;;0.20;0.20;;;-4.00;99.90;;;;;;5014749;28;20030;-73
2023/03/02 03:44:36;;;;;;;0.20;0.20;;;-4.00;99.90;;;;;;5030935;28;20374;-73
2023/03/02 03:47:02;;;;;;;0.25;0.25;;;-4.00;99.90;;;;;;5058083;28;20024;-73
2023/03/02 03:49:28;;;;;;;0.20;0.20;;;-3.90;99.90;;;;;;5058529;28;20043;-73
2023/03/02 03:51:54;;;;;;;0.20;0.20;;;-3.90;99.90;;;;;;5058236;28;20025;-73
2023/03/02 03:54:19;;;;;;;0.20;0.20;;;-3.90;99.90;;;;;;5057496;28;20510;-73
2023/03/02 03:56:48;;;;;;;0.20;0.20;;;-3.90;99.90;;;;;;5058024;28;20029;-73
2023/03/02 03:59:23;;;;;;;0.20;0.20;;;-4.00;99.90;;;;;;5039883;28;20028;-73
2023/03/02 04:01:52;;;;;;;0.30;0.30;;;-4.00;99.90;;;;;;5040157;28;20029;-73
2023/03/02 04:04:21;;;;;;;0.28;0.28;;;-4.00;99.90;;;;;;5058256;28;20036;-73
2023/03/02 04:06:46;;;;;;;0.20;0.20;;;-4.00;99.90;;;;;;5057658;28;20028;-73
2023/03/02 04:09:14;;;;;;;0.20;0.20;;;-4.10;99.90;;;;;;5058303;28;20029;-73
2023/03/02 04:11:41;;;;;;;0.20;0.20;;;-4.10;99.90;;;;;;5057872;28;20074;-73
2023/03/02 04:14:07;;;;;;;0.20;0.20;;;-4.10;99.90;;;;;;5057641;28;20031;-73
2023/03/02 04:16:33;;;;;;;0.30;0.30;;;-4.20;99.90;;;;;;5057622;28;20059;-73
2023/03/02 04:19:00;;;;;;;0.30;0.30;;;-4.20;99.90;;;;;;5057333;28;20459;-73
2023/03/02 04:21:26;;;;;;;0.20;0.20;;;-4.20;99.90;;;;;;5057936;28;20032;-73
2023/03/02 04:23:52;;;;;;;0.17;0.17;;;-4.20;99.90;;;;;;5057046;28;20043;-73
2023/03/02 04:26:17;;;;;;;0.20;0.20;;;-4.20;99.90;;;;;;5057897;28;20028;-73
2023/03/02 04:28:43;;;;;;;0.20;0.20;;;-4.20;99.90;;;;;;5056346;28;20397;-73
2023/03/02 04:31:09;;;;;;;0.22;0.22;;;-4.20;99.90;;;;;;5040071;28;20021;-73
2023/03/02 04:33:34;;;;;;;0.30;0.30;;;-4.20;99.90;;;;;;5056703;28;20021;-73
2023/03/02 04:36:00;;;;;;;0.20;0.20;;;-4.20;99.90;;;;;;5057761;28;20037;-73
2023/03/02 04:38:28;;;;;;;0.20;0.20;;;-4.20;99.90;;;;;;5057028;28;20032;-73
2023/03/02 04:40:55;;;;;;;0.20;0.20;;;-4.20;99.90;;;;;;5057277;28;20021;-73
2023/03/02 04:43:28;;;;;;;0.20;0.20;;;-4.30;99.90;;;;;;5057623;28;20036;-73
2023/03/02 04:45:53;;;;;;;0.30;0.30;;;-4.30;99.90;;;;;;5039143;28;20067;-73
2023/03/02 04:48:19;;;;;;;0.30;0.30;;;-4.30;99.90;;;;;;5038101;28;20437;-73
2023/03/02 04:50:45;;;;;;;0.20;0.20;;;-4.30;99.90;;;;;;5037166;28;20028;-73
2023/03/02 04:53:11;;;;;;;0.20;0.20;;;-4.30;99.90;;;;;;5036255;28;20026;-73
2023/03/02 04:55:39;;;;;;;0.20;0.20;;;-4.30;99.90;;;;;;5036978;28;20044;-73
2023/03/02 04:58:05;;;;;;;0.20;0.20;;;-4.40;99.90;;;;;;5036945;28;20040;-73
2023/03/02 05:00:34;;;;;;;0.20;0.20;;;-4.40;99.90;;;;;;5036968;28;20026;-73
2023/03/02 05:03:00;;;;;;;0.30;0.30;;;-4.40;99.90;;;;;;5018813;28;20398;-73
2023/03/02 05:05:27;;;;;;;0.30;0.30;;;-4.50;99.90;;;;;;5037309;28;20475;-73
2023/03/02 05:07:53;;;;;;;0.20;0.20;;;-4.50;99.90;;;;;;5018747;28;20021;-73
2023/03/02 05:10:20;;;;;;;0.20;0.20;;;-4.50;99.90;;;;;;5036815;28;20068;-73
2023/03/02 05:13:01;;;;;;;0.20;0.20;;;-4.50;99.90;;;;;;5036964;28;20095;-73
2023/03/02 05:15:29;;;;;;;0.30;0.30;;;-4.50;99.90;;;;;;5041648;28;20017;-73
2023/03/02 05:17:55;;;;;;;0.17;0.17;;;-4.50;99.90;;;;;;5056968;28;20138;-73
2023/03/02 05:20:26;;;;;;;0.28;0.28;;;-4.50;99.90;;;;;;5038345;28;20454;-73
2023/03/02 05:22:53;;;;;;;0.20;0.20;;;-4.50;99.90;;;;;;5056329;28;20029;-73
2023/03/02 05:25:19;;;;;;;0.20;0.20;;;-4.60;99.90;;;;;;5057181;28;20469;-73
2023/03/02 05:27:44;;;;;;;0.20;0.20;;;-4.60;99.90;;;;;;5056268;28;20107;-73
2023/03/02 05:30:10;;;;;;;0.22;0.22;;;-4.60;99.90;;;;;;5056124;28;20520;-73
2023/03/02 05:32:36;;;;;;;0.28;0.28;;;-4.50;99.90;;;;;;5056329;28;20029;-73
2023/03/02 05:35:01;;;;;;;0.20;0.20;;;-4.50;99.90;;;;;;5056479;28;20025;-73
2023/03/02 05:37:27;;;;;;;0.20;0.20;;;-4.50;99.90;;;;;;5055471;28;20025;-73
2023/03/02 05:39:52;;;;;;;0.20;0.20;;;-4.50;99.90;;;;;;5056320;28;20025;-74
2023/03/02 05:42:18;;;;;;;0.20;0.20;;;-4.40;99.90;;;;;;5055661;28;20060;-74
2023/03/02 05:44:43;;;;;;;0.20;0.20;;;-4.40;99.90;;;;;;5056389;28;20048;-74
2023/03/02 05:47:09;;;;;;;0.20;0.20;;;-4.50;99.90;;;;;;5055685;28;20028;-73
2023/03/02 05:49:34;;;;;;;0.20;0.20;;;-4.50;99.90;;;;;;5055477;28;20033;-73
2023/03/02 05:52:00;;;;;;;0.20;0.20;;;-4.50;99.90;;;;;;5055739;28;20025;-73
2023/03/02 05:54:26;;;;;;;0.30;0.30;;;-4.50;99.90;;;;;;5038440;28;20021;-73
2023/03/02 05:56:53;;;;;;;0.20;0.20;;;-4.60;99.90;;;;;;5055790;28;20043;-73
2023/03/02 05:59:19;;;;;;;0.20;0.20;;;-4.60;99.90;;;;;;5055878;28;20079;-73
2023/03/02 06:01:44;;;;;;;0.20;0.20;;;-4.50;99.90;;;;;;5038565;28;20421;-73
2023/03/02 06:04:10;;;;;;;0.10;0.10;;;-4.60;99.90;;;;;;5054948;28;20052;-73
2023/03/02 06:06:35;;;;;;;0.30;0.30;;;-4.60;99.90;;;;;;5055485;28;20025;-73
2023/03/02 06:09:01;;;;;;;0.20;0.20;;;-4.60;99.90;;;;;;5037745;28;20036;-73
2023/03/02 06:11:29;;;;;;;0.30;0.30;;;-4.60;99.90;;;;;;5055715;28;20020;-73
2023/03/02 06:13:54;;;;;;;0.28;0.28;;;-4.60;99.90;;;;;;5055366;28;20102;-73
2023/03/02 06:16:20;;;;;;;0.20;0.20;;;-4.60;99.90;;;;;;5037498;28;20121;-73
2023/03/02 06:18:45;;;;;;;0.25;0.25;;;-4.60;99.90;;;;;;5054952;28;20052;-74
2023/03/02 06:21:11;;;;;;;0.30;0.30;;;-4.60;99.90;;;;;;5055589;28;20058;-73
2023/03/02 06:23:39;;;;;;;0.20;0.20;;;-4.60;99.90;;;;;;5055298;28;20036;-73
2023/03/02 06:26:11;;;;;;;0.10;0.10;;;-4.60;99.90;;;;;;5055375;28;20025;-73
2023/03/02 06:28:38;;;;;;;0.20;0.20;;;-4.60;99.90;;;;;;5055142;28;20116;-73
2023/03/02 06:31:04;;;;;;;0.20;0.20;;;-4.50;99.90;;;;;;5054992;28;20083;-73
2023/03/02 06:33:30;;;;;;;0.13;0.13;;;-4.50;99.90;;;;;;5055525;28;20029;-73
2023/03/02 06:35:56;;;;;;;0.20;0.20;;;-4.40;99.90;;;;;;5055500;28;20045;-73
2023/03/02 06:38:21;;;;;;;0.20;0.20;;;-4.30;99.90;;;;;;5055034;28;20068;-73
2023/03/02 06:40:47;;;;;;;0.20;0.20;;;-4.20;99.90;;;;;;5055166;28;20443;-73
2023/03/02 06:43:13;;;;;;;0.20;0.20;;;-4.10;99.90;;;;;;5055150;28;20036;-73
2023/03/02 06:45:38;;;;;;;0.20;0.20;;;-4.10;99.90;;;;;;5054610;28;20062;-73
2023/03/02 06:48:05;;;;;;;0.20;0.20;;;-4.10;99.90;;;;;;5054920;28;20120;-73
2023/03/02 06:50:31;;;;;;;0.20;0.20;;;-4.00;99.90;;;;;;5054734;28;20071;-73
2023/03/02 06:52:56;;;;;;;0.20;0.20;;;-3.90;99.90;;;;;;5045812;28;20435;-73
2023/03/02 06:55:24;;;;;;;0.20;0.20;;;-3.70;99.90;;;;;;5035224;28;20037;-73
2023/03/02 06:57:50;;;;;;;0.20;0.20;;;-3.50;99.90;;;;;;5016704;28;20034;-73
2023/03/02 07:00:23;;;;;;;0.13;0.13;;;-3.40;99.90;;;;;;5017208;28;20044;-73
2023/03/02 07:02:49;;;;;;;0.20;0.20;;;-3.20;99.90;;;;;;5034638;28;20035;-73
2023/03/02 07:05:15;;;;;;;0.30;0.30;;;-3.10;99.90;;;;;;5034933;28;20113;-73
2023/03/02 07:07:40;;;;;;;0.20;0.20;;;-3.00;99.90;;;;;;5034269;28;20100;-73
2023/03/02 07:10:07;;;;;;;0.30;0.30;;;-2.90;99.90;;;;;;5034251;28;20493;-73
2023/03/02 07:12:36;;;;;;;0.30;0.30;;;-2.80;99.90;;;;;;5054429;28;20032;-73
2023/03/02 07:15:02;;;;;;;0.25;0.25;;;-2.60;99.90;;;;;;5054368;28;20098;-73
2023/03/02 07:17:28;;;;;;;0.10;0.10;;;-2.50;99.90;;;;;;5054075;28;20032;-74
2023/03/02 07:19:53;;;;;;;0.20;0.20;;;-2.30;99.90;;;;;;5049311;28;20021;-73
2023/03/02 07:22:19;;;;;;;0.15;0.15;;;-2.20;99.90;;;;;;5034951;28;20147;-73
2023/03/02 07:24:45;;;;;;;0.20;0.20;;;-2.00;99.90;;;;;;5034252;28;20057;-73
2023/03/02 07:27:10;;;;;;;0.20;0.20;;;-1.80;99.90;;;;;;5034450;28;20071;-74
2023/03/02 07:29:36;;;;;;;0.20;0.20;;;-1.60;99.90;;;;;;5034234;28;20475;-74
2023/03/02 07:32:01;;;;;;;0.20;0.20;;;-1.40;99.90;;;;;;5034363;28;20030;-73
2023/03/02 07:34:27;;;;;;;0.20;0.20;;;-1.20;99.90;;;;;;5034808;28;20470;-74
2023/03/02 07:36:53;;;;;;;0.30;0.30;;;-1.10;99.90;;;;;;5034365;28;20100;-74
2023/03/02 07:39:19;;;;;;;0.20;0.20;;;-1.00;99.90;;;;;;5048403;28;20021;-74
2023/03/02 07:41:45;;;;;;;0.10;0.10;;;-0.90;99.90;;;;;;5053715;28;20091;-73
2023/03/02 07:44:13;;;;;;;0.25;0.25;;;-0.80;99.90;;;;;;5054545;28;20032;-74
2023/03/02 07:46:39;;;;;;;0.20;0.20;;;-0.70;99.90;;;;;;5054000;28;20040;-74
2023/03/02 07:49:04;;;;;;;0.20;0.20;;;-0.60;99.90;;;;;;5047450;28;20017;-74
2023/03/02 07:51:30;;;;;;;0.22;0.22;;;-0.40;99.90;;;;;;5033677;28;20483;-73
2023/03/02 07:53:56;;;;;;;0.20;0.20;;;-0.30;99.90;;;;;;5034410;28;20060;-74
2023/03/02 07:56:21;;;;;;;0.10;0.10;;;-0.10;99.90;;;;;;5034128;28;20060;-74
2023/03/02 07:58:47;;;;;;;0.20;0.20;;;0.00;99.90;;;;;;5034212;28;20033;-74
2023/03/02 08:01:12;;;;;;;0.20;0.20;;;0.20;99.90;;;;;;5040715;28;20070;-74
2023/03/02 08:03:38;;;;;;;0.20;0.20;;;0.30;99.90;;;;;;5053823;28;20025;-73
2023/03/02 08:06:05;;;;;;;0.20;0.20;;;0.50;99.90;;;;;;5035873;28;20074;-74
2023/03/02 08:08:31;;;;;;;0.10;0.10;;;0.70;99.90;;;;;;5054115;28;20068;-74
2023/03/02 08:11:13;;;;;;;0.20;0.20;;;0.80;99.90;;;;;;5054015;28;20021;-74
2023/03/02 08:13:39;;;;;;;0.10;0.10;;;0.90;99.90;;;;;;5053704;28;20025;-74
2023/03/02 08:16:07;;;;;;;0.20;0.20;;;1.00;99.90;;;;;;5035888;28;20574;-74
2023/03/02 08:18:37;;;;;;;0.20;0.20;;;1.20;99.90;;;;;;5054029;28;20087;-75
2023/03/02 08:21:08;;;;;;;0.20;0.20;;;1.40;99.90;;;;;;5053741;28;20036;-74
2023/03/02 08:23:34;;;;;;;0.10;0.10;;;1.40;99.90;;;;;;5053809;28;20017;-75
2023/03/02 08:25:59;;;;;;;0.20;0.20;;;1.50;99.90;;;;;;5053342;28;20036;-74
2023/03/02 08:28:25;;;;;;;0.10;0.10;;;1.90;99.90;;;;;;5053969;28;20041;-74
2023/03/02 08:31:09;;;;;;;0.20;0.20;;;2.10;99.90;;;;;;5039259;28;20497;-74
2023/03/02 08:33:37;;;;;;;0.17;0.17;;;2.10;99.90;;;;;;5057288;28;20071;-75
2023/03/02 08:36:12;;;;;;;0.15;0.15;;;2.30;99.90;;;;;;5039897;28;20033;-74
2023/03/02 08:38:38;;;;;;;0.20;0.20;;;2.50;99.90;;;;;;5057233;28;20110;-74
2023/03/02 08:41:06;;;;;;;0.20;0.20;;;2.70;99.90;;;;;;5057103;28;20493;-75
2023/03/02 08:43:32;;;;;;;0.20;0.20;;;2.90;99.90;;;;;;5057294;28;20028;-74
2023/03/02 08:45:57;;;;;;;0.10;0.10;;;2.80;99.90;;;;;;5057275;28;20021;-74
2023/03/02 08:48:24;;;;;;;0.10;0.10;;;2.90;99.90;;;;;;5020591;28;20081;-74
2023/03/02 08:50:57;;;;;;;0.10;0.10;;;3.00;99.90;;;;;;5018935;28;20017;-74
2023/03/02 08:53:23;;;;;;;;;;;3.10;99.90;;;;;;5042403;28;20032;-75
2023/03/02 08:55:49;;;;;;;0.10;0.10;;;3.20;99.90;;;;;;5057756;28;20344;-74
2023/03/02 08:58:14;;;;;;;0.15;0.15;;;3.40;99.90;;;;;;5040401;28;20030;-74
2023/03/02 09:00:40;;;;;;;0.20;0.20;;;3.50;99.90;;;;;;5037478;28;20025;-74
2023/03/02 09:03:05;;;;;;;0.10;0.10;;;3.50;99.90;;;;;;5035498;28;20430;-74
2023/03/02 09:05:31;;;;;;;0.10;0.10;;;3.60;99.90;;;;;;5037044;28;20482;-74
2023/03/02 09:07:56;;;;;;;0.13;0.13;;;3.70;99.90;;;;;;5037153;28;20025;-74
2023/03/02 09:10:22;;;;;;;0.20;0.20;;;3.70;99.90;;;;;;5056959;28;20386;-74
2023/03/02 09:12:50;;;;;;;0.20;0.20;;;3.90;99.90;;;;;;5056670;28;20487;-74
2023/03/02 09:15:16;;;;;;;0.10;0.10;;;4.00;99.90;;;;;;5039055;28;20028;-74
2023/03/02 09:17:42;;;;;;;0.13;0.13;;;4.10;99.90;;;;;;5038371;28;20025;-74
2023/03/02 09:20:08;;;;;;;0.20;0.20;;;4.20;99.90;;;;;;5056557;28;20071;-74
2023/03/02 09:22:34;;;;;;;0.20;0.20;;;4.50;99.90;;;;;;5056708;28;20033;-74
2023/03/02 09:25:01;;;;;;;0.10;0.10;;;4.70;99.90;;;;;;5056046;28;20024;-74
2023/03/02 09:27:27;;;;;;;0.10;0.10;;;4.60;99.90;;;;;;5052524;23;20057;-71
2023/03/02 09:29:52;;;;;;;0.20;0.20;;;4.80;99.90;;;;;;5032062;28;20021;-72
2023/03/02 09:32:18;;;;;;;0.17;0.17;;;5.00;99.90;;;;;;5035088;28;20108;-71
2023/03/02 09:34:43;;;;;;;0.15;0.15;;;5.20;99.90;;;;;;5035354;28;20025;-71
2023/03/02 09:37:09;;;;;;;0.15;0.15;;;5.40;99.90;;;;;;5034323;28;20025;-71
2023/03/02 09:39:36;;;;;;;0.15;0.15;;;5.60;99.90;;;;;;5034707;28;20532;-71
2023/03/02 09:42:23;;;;;;;0.20;0.20;;;5.80;99.90;;;;;;5035152;28;20029;-71
2023/03/02 09:44:59;;;;;;;0.10;0.10;;;5.90;99.90;;;;;;5035031;28;20079;-72
2023/03/02 09:47:53;;;;;;;0.20;0.20;;;6.10;99.90;;;;;;5035198;28;20030;-72
2023/03/02 09:50:30;;;;;;;0.10;0.10;;;6.10;99.90;;;;;;5017255;28;20017;-71
2023/03/02 09:53:05;;;;;;;0.20;0.20;;;6.30;99.90;;;;;;5033383;28;20033;-72
2023/03/02 09:55:34;;;;;;;0.20;0.20;;;6.50;99.90;;;;;;5035109;28;20108;-72
2023/03/02 09:58:04;;;;;;;0.20;0.20;;;6.50;99.90;;;;;;5034503;28;20024;-72
2023/03/02 10:00:35;;;;;;;0.15;0.15;;;6.50;99.90;;;;;;5034900;28;20021;-72
2023/03/02 10:03:07;;;;;;;0.20;0.20;;;6.70;99.90;;;;;;5034467;28;20108;-72
2023/03/02 10:05:53;;;;;;;0.20;0.20;;;6.70;99.90;;;;;;5034879;28;20028;-72
2023/03/02 10:08:27;;;;;;;0.10;0.10;;;6.70;99.90;;;;;;5034741;28;20021;-72
2023/03/02 10:11:20;;;;;;;0.20;0.20;;;6.90;99.90;;;;;;5034343;28;20389;-72
2023/03/02 10:13:59;;;;;;;0.20;0.20;;;7.00;99.90;;;;;;5034216;28;20032;-72
2023/03/02 10:16:35;;;;;;;0.20;0.20;;;7.10;99.90;;;;;;5034512;28;20075;-72
2023/03/02 10:19:32;;;;;;;0.20;0.20;;;7.10;99.90;;;;;;5034478;28;20108;-72
2023/03/02 10:22:08;;;;;;;0.20;0.20;;;7.20;99.90;;;;;;5033860;28;20032;-72
2023/03/02 10:24:51;;;;;;;0.20;0.20;;;7.30;99.90;;;;;;5016403;28;20040;-72
2023/03/02 10:27:35;;;;;;;0.20;0.20;;;7.40;99.90;;;;;;5034077;28;20034;-73
2023/03/02 10:30:14;;;;;;;0.20;0.20;;;7.50;99.90;;;;;;5033979;28;20482;-72
2023/03/02 10:32:45;;;;;;;0.30;0.30;;;7.70;99.90;;;;;;5034190;28;20092;-72
2023/03/02 10:35:30;;;;;;;0.20;0.20;;;7.70;99.90;;;;;;5016200;28;20048;-72
2023/03/02 10:38:09;;;;;;;0.20;0.20;;;7.70;99.90;;;;;;5033617;28;20079;-72
2023/03/02 10:40:41;;;;;;;0.20;0.20;;;7.70;99.90;;;;;;5034079;28;20096;-72
2023/03/02 10:43:23;;;;;;;0.20;0.20;;;7.80;99.90;;;;;;5033442;28;20455;-72
2023/03/02 10:45:58;;;;;;;0.20;0.20;;;7.90;99.90;;;;;;5034121;28;20021;-72
2023/03/02 10:48:23;;;;;;;0.17;0.17;;;8.00;99.90;;;;;;5033889;28;20021;-72
2023/03/02 10:50:54;;;;;;;0.20;0.20;;;8.10;99.90;;;;;;5032726;28;20028;-72
2023/03/02 10:53:19;;;;;;;0.28;0.28;;;8.10;99.90;;;;;;5033489;28;20025;-72
2023/03/02 10:55:51;;;;;;;0.10;0.10;;;8.20;99.90;;;;;;5033586;28;20048;-72
2023/03/02 10:58:28;;;;;;;0.20;0.20;;;8.30;99.90;;;;;;5033044;28;20022;-72
2023/03/02 11:00:56;;;;;;;0.10;0.10;;;8.50;99.90;;;;;;5033698;28;20097;-72
2023/03/02 11:03:22;;;;;;;0.30;0.30;;;8.60;99.90;;;;;;5033776;28;20018;-72
2023/03/02 11:05:48;;;;;;;0.20;0.20;;;8.70;99.90;;;;;;5033856;28;20056;-72
2023/03/02 11:08:19;;;;;;;0.20;0.20;;;8.70;99.90;;;;;;5033188;28;20045;-72
2023/03/02 11:11:00;;;;;;;0.20;0.20;;;8.70;99.90;;;;;;5033287;28;20077;-71
2023/03/02 11:13:29;;;;;;;0.20;0.20;;;8.70;99.90;;;;;;5033608;28;20029;-72
2023/03/02 11:16:01;;;;;;;0.20;0.20;;;8.70;99.90;;;;;;5033813;28;20018;-72
2023/03/02 11:18:30;;;;;;;0.20;0.20;;;8.90;99.90;;;;;;5033316;28;20033;-72
2023/03/02 11:21:32;;;;;;;0.20;0.20;;;9.10;99.90;;;;;;5033335;28;20104;-72
2023/03/02 11:24:10;;;;;;;0.10;0.10;;;9.30;99.90;;;;;;5022390;28;20037;-72
2023/03/02 11:26:42;;;;;;;0.20;0.20;;;9.70;99.90;;;;;;5016053;28;20033;-72
2023/03/02 11:29:29;;;;;;;0.20;0.20;;;9.70;99.90;;;;;;5041586;22;20056;-72
2023/03/02 11:32:20;;;;;;;0.20;0.20;;;9.70;99.90;;;;;;5018028;28;20474;-72
2023/03/02 11:35:23;;;;;;;0.20;0.20;;;9.90;99.90;;;;;;5028129;28;20053;-72
2023/03/02 11:37:51;;;;;;;0.20;0.20;;;10.20;99.90;;;;;;5034646;28;20036;-72
2023/03/02 11:40:23;;;;;;;0.20;0.20;;;10.20;99.90;;;;;;5033668;28;20121;-72
2023/03/02 11:42:50;;;;;;;0.20;0.20;;;10.50;99.90;;;;;;5015634;28;20056;-72
2023/03/02 11:45:33;;;;;;;0.15;0.15;;;10.80;99.90;;;;;;5033200;28;20029;-72
2023/03/02 11:48:30;;;;;;;0.20;0.20;;;10.90;99.90;;;;;;5033219;28;20028;-72
2023/03/02 11:50:59;;;;;;;0.10;0.10;;;10.70;99.90;;;;;;5032862;28;20129;-72
2023/03/02 11:53:57;;;;;;;0.10;0.10;;;10.40;99.90;;;;;;5034761;28;20028;-72
2023/03/02 11:56:25;;;;;;;0.20;0.20;;;10.40;99.90;;;;;;5047502;28;20401;-72
2023/03/02 11:58:56;;;;;;;0.17;0.17;;;10.60;99.90;;;;;;5052756;28;20025;-72
2023/03/02 12:01:24;;;;;;;0.20;0.20;;;11.00;99.90;;;;;;5053157;28;20028;-72
2023/03/02 12:03:50;;;;;;;0.20;0.20;;;11.40;99.90;;;;;;5055284;28;20112;-72
2023/03/02 12:06:23;;;;;;;0.20;0.20;;;11.80;99.90;;;;;;5057015;28;20028;-72
2023/03/02 12:08:52;;;;;;;0.20;0.20;;;12.00;99.90;;;;;;5057156;28;20021;-72
2023/03/02 12:11:17;;;;;;;0.17;0.17;;;12.20;99.90;;;;;;5056584;28;20021;-72
2023/03/02 12:13:56;;;;;;;0.10;0.10;;;12.50;99.90;;;;;;5056921;28;20021;-72
2023/03/02 12:16:39;;;;;;;0.20;0.20;;;12.60;99.90;;;;;;5056181;28;20071;-72
2023/03/02 12:19:12;;;;;;;0.10;0.10;;;12.80;99.90;;;;;;5056343;28;20052;-72
2023/03/02 12:21:40;;;;;;;0.20;0.20;;;12.70;99.90;;;;;;5056315;28;20099;-72
2023/03/02 12:24:25;;;;;;;0.10;0.10;;;12.30;99.90;;;;;;5056024;28;20083;-72
2023/03/02 12:27:01;;;;;;;0.20;0.20;;;11.90;99.90;;;;;;5056608;28;20070;-72
2023/03/02 12:29:48;;;;;;;0.20;0.20;;;12.00;99.90;;;;;;5056790;28;20402;-72
2023/03/02 12:32:28;;;;;;;0.20;0.20;;;12.30;99.90;;;;;;5038680;28;20021;-72
2023/03/02 12:35:07;;;;;;;0.20;0.20;;;12.80;99.90;;;;;;5056507;28;20021;-72
2023/03/02 12:37:52;;;;;;;0.10;0.10;;;13.30;99.90;;;;;;5056422;28;20078;-72
2023/03/02 12:40:52;;;;;;;0.20;0.20;;;13.30;99.90;;;;;;5041027;28;20041;-71
2023/03/02 12:43:31;;;;;;;0.10;0.10;;;12.80;99.90;;;;;;5035032;28;20076;-72
2023/03/02 12:46:27;;;;;;;0.20;0.20;;;13.00;99.90;;;;;;5036672;28;20503;-72
2023/03/02 12:49:18;;;;;;;0.20;0.20;;;13.40;99.90;;;;;;5036199;28;20029;-71
2023/03/02 12:52:00;;;;;;;0.10;0.10;;;13.90;99.90;;;;;;5017035;28;20028;-72
2023/03/02 12:54:29;;;;;;;0.13;0.13;;;14.20;99.90;;;;;;5016701;28;20031;-72
2023/03/02 12:57:07;;;;;;;0.17;0.17;;;14.30;99.90;;;;;;5016113;28;20086;-72
2023/03/02 12:59:33;;;;;;;0.10;0.10;;;14.10;99.90;;;;;;5032184;28;20025;-72
2023/03/02 13:02:27;;;;;;;0.20;0.20;;;14.40;99.90;;;;;;5038487;28;20025;-72
2023/03/02 13:04:58;;;;;;;0.10;0.10;;;14.80;99.90;;;;;;5053340;28;20499;-72
2023/03/02 13:07:45;;;;;;;0.10;0.10;;;15.20;99.90;;;;;;5055281;28;20017;-71
2023/03/02 13:10:25;;;;;;;0.10;0.10;;;15.70;99.90;;;;;;5054826;28;20079;-71
2023/03/02 13:12:51;;;;;;;0.10;0.10;;;15.90;99.90;;;;;;5055351;28;20028;-71
2023/03/02 13:15:17;;;;;;;0.10;0.10;;;16.10;99.90;;;;;;5049869;28;20026;-72
2023/03/02 13:17:43;;;;;;;0.10;0.10;;;15.70;99.90;;;;;;5048199;22;20115;-71
2023/03/02 13:20:12;;;;;;;0.10;0.10;;;15.50;99.90;;;;;;5054544;28;20021;-71
2023/03/02 13:22:38;;;;;;;0.10;0.10;;;16.10;99.90;;;;;;5055306;28;20482;-71
2023/03/02 13:25:07;;;;;;;0.10;0.10;;;16.70;99.90;;;;;;5054812;28;20033;-72
2023/03/02 13:27:33;;;;;;;0.10;0.10;;;16.90;99.90;;;;;;5054619;28;20419;-71
2023/03/02 13:30:26;;;;;;;0.10;0.10;;;16.10;99.90;;;;;;5054514;28;20025;-71
2023/03/02 13:33:02;;;;;;;0.13;0.13;;;15.80;99.90;;;;;;5054667;28;20147;-72
2023/03/02 13:35:30;;;;;;;0.10;0.10;;;15.90;99.90;;;;;;5054610;28;20053;-71
2023/03/02 13:38:14;;;;;;;0.10;0.10;;;16.10;99.90;;;;;;5054658;28;20033;-72
2023/03/02 13:40:47;;;;;;;0.10;0.10;;;15.90;99.90;;;;;;5054385;28;20394;-71
2023/03/02 13:43:37;;;;;;;0.10;0.10;;;15.10;99.90;;;;;;5054363;28;20025;-71
2023/03/02 13:46:25;;;;;;;0.10;0.10;;;14.90;99.90;;;;;;5029582;28;20033;-71
2023/03/02 13:48:58;;;;;;;0.10;0.10;;;14.70;99.90;;;;;;5036523;28;20043;-72
2023/03/02 13:51:26;;;;;;;0.10;0.10;;;14.90;99.90;;;;;;5054563;28;20028;-72
2023/03/02 13:53:55;;;;;;;0.20;0.20;;;14.90;99.90;;;;;;5053063;28;20197;-72
2023/03/02 13:56:27;;;;;;;0.10;0.10;;;14.80;99.90;;;;;;5054534;28;20032;-72
2023/03/02 13:58:53;;;;;;;0.20;0.20;;;13.80;99.90;;;;;;5036157;28;20112;-72
2023/03/02 14:01:18;;;;;;;0.20;0.20;;;12.90;99.90;;;;;;5054334;28;20155;-72